Time,TemperatureF,DewpointF,PressureIn,WindDirection,WindDirectionDegrees,WindSpeedMPH,WindSpeedGustMPH,Humidity,HourlyPrecipIn,Conditions,Clouds,dailyrainin,SolarRadiationWatts/m^2,SoftwareType,DateUTC
2013-02-22 00:00:00,28.4,18.1,30.16,WNW,291,5.0,18.0,65,0.00,,---,0.00,0.00,VWS V14.01,2013-02-22 05:00:00,
2013-02-22 00:05:00,28.5,18.2,30.16,NW,325,14.0,15.0,65,0.00,,---,0.00,0.00,VWS V14.01,2013-02-22 05:05:00,
2013-02-22 00:10:00,28.6,18.7,30.17,WNW,291,8.0,16.0,66,0.00,,---,0.00,0.00,VWS V14.01,2013-02-22 05:10:00,
2013-02-22 00:15:00,28.8,18.9,30.18,WNW,286,13.0,17.0,66,0.00,,---,0.00,0.00,VWS V14.01,2013-02-22 05:15:00,
2013-02-22 00:20:00,28.9,19.0,30.19,WNW,297,13.0,18.0,66,0.00,,---,0.00,0.00,VWS V14.01,2013-02-22 05:20:00,
2013-02-22 00:25:00,29.0,19.1,30.19,WNW,298,15.0,18.0,66,0.00,,---,0.00,0.00,VWS V14.01,2013-02-22 05:25:00,
2013-02-22 00:30:00,29.2,19.3,30.19,West,275,9.0,19.0,66,0.00,,---,0.00,0.00,VWS V14.01,2013-02-22 05:30:00,
2013-02-22 00:35:00,29.3,19.4,30.20,NW,311,16.0,17.0,66,0.00,,---,0.00,0.00,VWS V14.01,2013-02-22 05:35:00,
2013-02-22 00:40:00,29.4,19.1,30.20,West,279,12.0,19.0,65,0.00,,---,0.00,0.00,VWS V14.01,2013-02-22 05:40:00,
2013-02-22 00:45:00,29.4,19.1,30.21,WNW,291,17.0,19.0,65,0.00,,---,0.00,0.00,VWS V14.01,2013-02-22 05:45:00,
2013-02-22 00:50:00,29.6,19.3,30.22,NW,310,17.0,22.0,65,0.00,,---,0.00,0.00,VWS V14.01,2013-02-22 05:50:00,
2013-02-22 00:55:00,29.6,18.9,30.23,NW,309,9.0,24.0,64,0.00,,---,0.00,0.00,VWS V14.01,2013-02-22 05:55:00,
2013-02-22 01:00:00,29.6,20.0,30.22,NNW,331,11.0,24.0,67,0.00,,---,0.00,0.00,VWS V14.01,2013-02-22 06:00:00,
2013-02-22 01:05:00,29.6,18.9,30.22,NW,313,11.0,19.0,64,0.00,,---,0.00,0.00,VWS V14.01,2013-02-22 06:05:00,
2013-02-22 01:10:00,29.5,19.2,30.21,WNW,294,12.0,19.0,65,0.00,,---,0.00,0.00,VWS V14.01,2013-02-22 06:10:00,
2013-02-22 01:15:00,29.4,18.4,30.21,NNW,333,13.0,21.0,63,0.00,,,0.00,0.00,VWS V14.01,2013-02-22 06:15:00,
2013-02-22 01:16:00,29.4,18.4,30.21,NW,304,18.0,21.0,63,0.00,,---,0.00,0.00,VWS V14.01,2013-02-22 06:16:00,
2013-02-22 01:21:00,29.5,18.8,30.21,NW,323,15.0,18.0,64,0.00,,---,0.00,0.00,VWS V14.01,2013-02-22 06:21:00,
2013-02-22 01:26:00,29.4,18.7,30.21,NW,316,13.0,18.0,64,0.00,,---,0.00,0.00,VWS V14.01,2013-02-22 06:26:00,
2013-02-22 01:31:00,29.5,18.8,30.21,NW,317,8.0,19.0,64,0.00,,---,0.00,0.00,VWS V14.01,2013-02-22 06:31:00,
2013-02-22 01:36:00,29.5,18.8,30.21,NW,314,17.0,22.0,64,0.00,,---,0.00,0.00,VWS V14.01,2013-02-22 06:36:00,
2013-02-22 01:41:00,29.6,18.9,30.21,WNW,303,9.0,23.0,64,0.00,,---,0.00,0.00,VWS V14.01,2013-02-22 06:41:00,
2013-02-22 01:45:00,29.6,18.9,30.21,NW,315,12.0,23.0,64,0.00,,,0.00,0.00,VWS V14.01,2013-02-22 06:45:00,
2013-02-22 01:46:00,29.6,18.9,30.21,NW,322,11.0,23.0,64,0.00,,---,0.00,0.00,VWS V14.01,2013-02-22 06:46:00,
2013-02-22 01:51:00,29.6,19.3,30.21,WNW,301,9.0,21.0,65,0.00,,---,0.00,0.00,VWS V14.01,2013-02-22 06:51:00,
2013-02-22 01:56:00,29.7,19.0,30.22,NW,319,20.0,21.0,64,0.00,,---,0.00,0.00,VWS V14.01,2013-02-22 06:56:00,
2013-02-22 02:00:00,29.7,19.0,30.21,WNW,285,15.0,23.0,64,0.00,,,0.00,0.00,VWS V14.01,2013-02-22 07:00:00,
2013-02-22 02:01:00,29.7,19.0,30.21,NW,323,12.0,23.0,64,0.00,,---,0.00,0.00,VWS V14.01,2013-02-22 07:01:00,
2013-02-22 02:06:00,29.8,19.1,30.22,NW,325,12.0,23.0,64,0.00,,---,0.00,0.00,VWS V14.01,2013-02-22 07:06:00,
2013-02-22 02:11:00,29.8,19.1,30.23,NNW,338,8.0,23.0,64,0.00,,---,0.00,0.00,VWS V14.01,2013-02-22 07:11:00,
2013-02-22 02:15:00,29.8,19.1,30.23,WNW,300,10.0,23.0,64,0.00,,,0.00,0.00,VWS V14.01,2013-02-22 07:15:00,
2013-02-22 02:16:00,29.8,19.1,30.23,NW,309,14.0,23.0,64,0.00,,---,0.00,0.00,VWS V14.01,2013-02-22 07:16:00,
2013-02-22 02:21:00,29.8,19.0,30.23,NW,316,12.0,-999.0,64,-99.99,,,0.00,0,weatherlink.com 1.10,2013-02-22 07:21:00,
2013-02-22 02:26:00,29.8,19.1,30.22,NW,312,11.0,19.0,64,0.00,,---,0.00,0.00,VWS V14.01,2013-02-22 07:26:00,
2013-02-22 02:30:00,29.8,19.1,30.23,NNW,340,12.0,19.0,64,0.00,,,0.00,0.00,VWS V14.01,2013-02-22 07:30:00,
2013-02-22 02:31:00,29.8,19.1,30.23,NNW,340,12.0,19.0,64,0.00,,---,0.00,0.00,VWS V14.01,2013-02-22 07:31:00,
2013-02-22 02:36:00,29.8,19.1,30.22,WNW,303,13.0,22.0,64,0.00,,---,0.00,0.00,VWS V14.01,2013-02-22 07:36:00,
2013-02-22 02:41:00,29.8,19.1,30.23,NW,307,15.0,22.0,64,0.00,,---,0.00,0.00,VWS V14.01,2013-02-22 07:41:00,
2013-02-22 02:45:00,29.8,19.5,30.22,NW,319,10.0,22.0,65,0.00,,,0.00,0.00,VWS V14.01,2013-02-22 07:45:00,
2013-02-22 02:46:00,29.8,19.5,30.22,NNW,335,11.0,22.0,65,0.00,,---,0.00,0.00,VWS V14.01,2013-02-22 07:46:00,
2013-02-22 02:51:00,29.8,19.5,30.23,NW,317,15.0,21.0,65,0.00,,---,0.00,0.00,VWS V14.01,2013-02-22 07:51:00,
2013-02-22 02:56:00,29.7,19.4,30.23,NNW,340,12.0,21.0,65,0.00,,---,0.00,0.00,VWS V14.01,2013-02-22 07:56:00,
2013-02-22 03:01:00,29.7,19.4,30.23,NW,325,8.0,21.0,65,0.00,,---,0.00,0.00,VWS V14.01,2013-02-22 08:01:00,
2013-02-22 03:06:00,29.7,19.4,30.22,NNW,348,9.0,16.0,65,0.00,,---,0.00,0.00,VWS V14.01,2013-02-22 08:06:00,
2013-02-22 03:11:00,29.5,19.2,30.23,NNW,340,12.0,19.0,65,0.00,,---,0.00,0.00,VWS V14.01,2013-02-22 08:11:00,
2013-02-22 03:15:00,29.4,19.5,30.24,NW,318,11.0,19.0,66,0.00,,,0.00,0.00,VWS V14.01,2013-02-22 08:15:00,
2013-02-22 03:16:00,29.5,19.6,30.23,NW,315,10.0,19.0,66,0.00,,---,0.00,0.00,VWS V14.01,2013-02-22 08:16:00,
2013-02-22 03:21:00,29.4,19.1,30.24,WNW,297,15.0,20.0,65,0.00,,---,0.00,0.00,VWS V14.01,2013-02-22 08:21:00,
2013-02-22 03:26:00,29.4,19.5,30.23,NW,306,11.0,20.0,66,0.00,,---,0.00,0.00,VWS V14.01,2013-02-22 08:26:00,
2013-02-22 03:30:00,29.3,19.4,30.23,NW,309,16.0,20.0,66,0.00,,,0.00,0.00,VWS V14.01,2013-02-22 08:30:00,
2013-02-22 03:31:00,29.3,19.4,30.23,NW,305,12.0,20.0,66,0.00,,---,0.00,0.00,VWS V14.01,2013-02-22 08:31:00,
2013-02-22 03:36:00,29.3,19.4,30.24,NW,307,9.0,18.0,66,0.00,,---,0.00,0.00,VWS V14.01,2013-02-22 08:36:00,
2013-02-22 03:41:00,29.4,19.8,30.24,NW,304,8.0,18.0,67,0.00,,---,0.00,0.00,VWS V14.01,2013-02-22 08:41:00,
2013-02-22 03:45:00,29.4,19.8,30.25,WNW,300,16.0,19.0,67,0.00,,,0.00,0.00,VWS V14.01,2013-02-22 08:45:00,
2013-02-22 03:46:00,29.4,19.8,30.25,NW,316,17.0,19.0,67,0.00,,---,0.00,0.00,VWS V14.01,2013-02-22 08:46:00,
2013-02-22 03:51:00,29.4,19.8,30.25,NNW,333,16.0,21.0,67,0.00,,---,0.00,0.00,VWS V14.01,2013-02-22 08:51:00,
2013-02-22 03:56:00,29.4,19.8,30.25,NW,317,8.0,21.0,67,0.00,,---,0.00,0.00,VWS V14.01,2013-02-22 08:56:00,
2013-02-22 04:00:00,29.3,19.7,30.24,WNW,298,8.0,21.0,67,0.00,,,0.00,0.00,VWS V14.01,2013-02-22 09:00:00,
2013-02-22 04:01:00,29.3,19.7,30.24,NNW,328,7.0,21.0,67,0.00,,---,0.00,0.00,VWS V14.01,2013-02-22 09:01:00,
2013-02-22 04:06:00,29.4,20.2,30.25,WNW,301,8.0,16.0,68,0.00,,---,0.00,0.00,VWS V14.01,2013-02-22 09:06:00,
2013-02-22 04:11:00,29.4,20.2,30.24,NW,310,19.0,19.0,68,0.00,,---,0.00,0.00,VWS V14.01,2013-02-22 09:11:00,
2013-02-22 04:15:00,29.4,20.2,30.24,WNW,296,11.0,22.0,68,0.00,,,0.00,0.00,VWS V14.01,2013-02-22 09:15:00,
2013-02-22 04:16:00,29.4,20.2,30.24,NNW,336,9.0,22.0,68,0.00,,---,0.00,0.00,VWS V14.01,2013-02-22 09:16:00,
2013-02-22 04:21:00,29.4,20.2,30.23,NW,315,16.0,16.0,68,0.00,,---,0.00,0.00,VWS V14.01,2013-02-22 09:21:00,
2013-02-22 04:26:00,29.5,20.3,30.23,NW,322,7.0,19.0,68,0.00,,---,0.00,0.00,VWS V14.01,2013-02-22 09:26:00,
2013-02-22 04:30:00,29.6,20.4,30.23,NW,321,11.0,19.0,68,0.00,,,0.00,0.00,VWS V14.01,2013-02-22 09:30:00,
2013-02-22 04:31:00,29.6,20.4,30.23,NNW,342,13.0,19.0,68,0.00,,---,0.00,0.00,VWS V14.01,2013-02-22 09:31:00,
2013-02-22 04:36:00,29.6,20.4,30.24,WNW,296,8.0,17.0,68,0.00,,---,0.00,0.00,VWS V14.01,2013-02-22 09:36:00,
2013-02-22 04:41:00,29.7,20.5,30.24,NNW,345,10.0,17.0,68,0.00,,---,0.00,0.00,VWS V14.01,2013-02-22 09:41:00,
2013-02-22 04:45:00,29.7,20.5,30.25,North,355,13.0,18.0,68,0.00,,,0.00,0.00,VWS V14.01,2013-02-22 09:45:00,
2013-02-22 04:46:00,29.7,20.5,30.25,NW,311,6.0,18.0,68,0.00,,---,0.00,0.00,VWS V14.01,2013-02-22 09:46:00,
2013-02-22 04:51:00,29.7,20.5,30.25,NNW,338,10.0,16.0,68,0.00,,---,0.00,0.00,VWS V14.01,2013-02-22 09:51:00,
2013-02-22 04:56:00,29.7,20.8,30.26,NW,319,12.0,16.0,69,0.00,,---,0.00,0.00,VWS V14.01,2013-02-22 09:56:00,
2013-02-22 05:00:00,29.8,20.9,30.26,North,355,12.0,18.0,69,0.00,,,0.00,0.00,VWS V14.01,2013-02-22 10:00:00,
2013-02-22 05:01:00,29.8,20.9,30.26,North,355,12.0,18.0,69,0.00,,---,0.00,0.00,VWS V14.01,2013-02-22 10:01:00,
2013-02-22 05:06:00,29.8,20.9,30.26,NW,314,6.0,14.0,69,0.00,,---,0.00,0.00,VWS V14.01,2013-02-22 10:06:00,
2013-02-22 05:11:00,29.9,21.0,30.27,NW,325,10.0,20.0,69,0.00,,---,0.00,0.00,VWS V14.01,2013-02-22 10:11:00,
2013-02-22 05:15:00,29.9,21.0,30.28,WNW,303,8.0,20.0,69,0.00,,,0.00,0.00,VWS V14.01,2013-02-22 10:15:00,
2013-02-22 05:16:00,29.9,21.0,30.28,WNW,303,8.0,20.0,69,0.00,,---,0.00,0.00,VWS V14.01,2013-02-22 10:16:00,
2013-02-22 05:21:00,30.0,21.1,30.29,NW,315,10.0,16.0,69,0.00,,---,0.00,0.00,VWS V14.01,2013-02-22 10:21:00,
2013-02-22 05:26:00,30.1,21.5,30.29,NW,309,12.0,17.0,70,0.00,,---,0.00,0.00,VWS V14.01,2013-02-22 10:26:00,
2013-02-22 05:30:00,30.1,21.2,30.29,NW,317,9.0,17.0,69,0.00,,,0.00,0.00,VWS V14.01,2013-02-22 10:30:00,
2013-02-22 05:31:00,30.1,21.2,30.29,NW,317,9.0,17.0,69,0.00,,---,0.00,0.00,VWS V14.01,2013-02-22 10:31:00,
2013-02-22 05:36:00,30.1,21.5,30.30,NW,321,10.0,15.0,70,0.00,,---,0.00,0.00,VWS V14.01,2013-02-22 10:36:00,
2013-02-22 05:41:00,30.1,21.5,30.31,West,280,13.0,18.0,70,0.00,,---,0.00,0.00,VWS V14.01,2013-02-22 10:41:00,
2013-02-22 05:45:00,30.2,21.6,30.32,NW,321,10.0,18.0,70,0.00,,,0.00,0.00,VWS V14.01,2013-02-22 10:45:00,
2013-02-22 05:46:00,30.2,21.6,30.32,NW,321,10.0,18.0,70,0.00,,---,0.00,0.00,VWS V14.01,2013-02-22 10:46:00,
2013-02-22 05:51:00,30.2,21.6,30.32,NNW,342,11.0,16.0,70,0.00,,---,0.00,0.00,VWS V14.01,2013-02-22 10:51:00,
2013-02-22 05:56:00,30.2,21.6,30.31,NW,317,8.0,16.0,70,0.00,,---,0.00,0.00,VWS V14.01,2013-02-22 10:56:00,
2013-02-22 06:00:00,30.2,21.6,30.31,NNW,338,11.0,16.0,70,0.00,,,0.00,0.00,VWS V14.01,2013-02-22 11:00:00,
2013-02-22 06:01:00,30.1,21.5,30.31,NNW,336,10.0,11.0,70,0.00,,---,0.00,0.00,VWS V14.01,2013-02-22 11:01:00,
2013-02-22 06:06:00,30.2,21.6,30.31,NW,326,10.0,15.0,70,0.00,,---,0.00,0.00,VWS V14.01,2013-02-22 11:06:00,
2013-02-22 06:11:00,30.2,21.6,30.30,NW,315,15.0,17.0,70,0.00,,---,0.00,0.00,VWS V14.01,2013-02-22 11:11:00,
2013-02-22 06:15:00,30.2,21.6,30.31,NNW,334,12.0,17.0,70,0.00,,,0.00,0.00,VWS V14.01,2013-02-22 11:15:00,
2013-02-22 06:16:00,30.2,21.6,30.31,NNW,334,12.0,12.0,70,0.00,,---,0.00,0.00,VWS V14.01,2013-02-22 11:16:00,
2013-02-22 06:21:00,30.2,21.6,30.31,NNW,342,11.0,14.0,70,0.00,,---,0.00,0.00,VWS V14.01,2013-02-22 11:21:00,
2013-02-22 06:26:00,30.2,21.6,30.32,NNW,331,14.0,15.0,70,0.00,,---,0.00,0.00,VWS V14.01,2013-02-22 11:26:00,
2013-02-22 06:30:00,30.1,21.5,30.32,NW,321,9.0,18.0,70,0.00,,,0.00,0.00,VWS V14.01,2013-02-22 11:30:00,
2013-02-22 06:31:00,30.1,21.5,30.32,NW,313,10.0,10.0,70,0.00,,---,0.00,0.00,VWS V14.01,2013-02-22 11:31:00,
2013-02-22 06:36:00,30.1,21.5,30.32,NW,304,6.0,14.0,70,0.00,,---,0.00,5.00,VWS V14.01,2013-02-22 11:36:00,
2013-02-22 06:41:00,30.1,21.5,30.33,NW,306,9.0,16.0,70,0.00,,---,0.00,5.00,VWS V14.01,2013-02-22 11:41:00,
2013-02-22 06:45:00,30.1,21.5,30.33,NNW,331,8.0,16.0,70,0.00,,,0.00,9.00,VWS V14.01,2013-02-22 11:45:00,
2013-02-22 06:46:00,30.1,21.5,30.33,NW,309,8.0,8.0,70,0.00,,---,0.00,9.00,VWS V14.01,2013-02-22 11:46:00,
2013-02-22 06:51:00,30.2,21.6,30.34,NW,319,11.0,14.0,70,0.00,,---,0.00,12.00,VWS V14.01,2013-02-22 11:51:00,
2013-02-22 06:56:00,30.1,21.5,30.34,NW,322,8.0,14.0,70,0.00,,---,0.00,16.00,VWS V14.01,2013-02-22 11:56:00,
2013-02-22 07:00:00,30.1,21.5,30.34,NW,321,15.0,16.0,70,0.00,,,0.00,21.00,VWS V14.01,2013-02-22 12:00:00,
2013-02-22 07:01:00,30.2,21.6,30.34,NNW,340,7.0,15.0,70,0.00,,---,0.00,21.00,VWS V14.01,2013-02-22 12:01:00,
2013-02-22 07:06:00,30.1,21.5,30.34,NW,315,8.0,16.0,70,0.00,,---,0.00,28.00,VWS V14.01,2013-02-22 12:06:00,
2013-02-22 07:11:00,30.1,21.5,30.35,WNW,300,11.0,16.0,70,0.00,,---,0.00,33.00,VWS V14.01,2013-02-22 12:11:00,
2013-02-22 07:16:00,30.1,21.5,30.35,West,281,13.0,13.0,70,0.00,,---,0.00,35.00,VWS V14.01,2013-02-22 12:16:00,
2013-02-22 07:21:00,30.1,21.5,30.35,WNW,300,6.0,15.0,70,0.00,,---,0.00,42.00,VWS V14.01,2013-02-22 12:21:00,
2013-02-22 07:26:00,30.1,21.5,30.36,WNW,292,10.0,19.0,70,0.00,,---,0.00,49.00,VWS V14.01,2013-02-22 12:26:00,
2013-02-22 07:30:00,30.0,21.4,30.36,NNW,331,12.0,19.0,70,0.00,,,0.00,56.00,VWS V14.01,2013-02-22 12:30:00,
2013-02-22 07:31:00,30.0,21.4,30.36,NW,322,8.0,12.0,70,0.00,,---,0.00,56.00,VWS V14.01,2013-02-22 12:31:00,
2013-02-22 07:36:00,30.1,21.5,30.36,NW,312,13.0,17.0,70,0.00,,---,0.00,63.00,VWS V14.01,2013-02-22 12:36:00,
2013-02-22 07:41:00,30.1,21.5,30.36,NW,320,9.0,17.0,70,0.00,,---,0.00,74.00,VWS V14.01,2013-02-22 12:41:00,
2013-02-22 07:45:00,30.1,21.2,30.36,NW,313,7.0,17.0,69,0.00,,,0.00,79.00,VWS V14.01,2013-02-22 12:45:00,
2013-02-22 07:46:00,30.1,21.2,30.36,NW,315,8.0,8.0,69,0.00,,---,0.00,76.00,VWS V14.01,2013-02-22 12:46:00,
2013-02-22 07:51:00,30.1,21.2,30.37,WNW,292,12.0,16.0,69,0.00,,---,0.00,70.00,VWS V14.01,2013-02-22 12:51:00,
2013-02-22 07:56:00,30.1,21.2,30.36,NNW,328,4.0,16.0,69,0.00,,---,0.00,79.00,VWS V14.01,2013-02-22 12:56:00,
2013-02-22 08:00:00,30.2,21.3,30.36,NW,310,15.0,16.0,69,0.00,,,0.00,91.00,VWS V14.01,2013-02-22 13:00:00,
2013-02-22 08:01:00,30.1,21.2,30.36,NNW,340,10.0,15.0,69,0.00,,---,0.00,91.00,VWS V14.01,2013-02-22 13:01:00,
2013-02-22 08:06:00,30.2,21.3,30.36,NW,323,9.0,17.0,69,0.00,,---,0.00,91.00,VWS V14.01,2013-02-22 13:06:00,
2013-02-22 08:11:00,30.3,21.4,30.36,NW,313,9.0,17.0,69,0.00,,---,0.00,113.00,VWS V14.01,2013-02-22 13:11:00,
2013-02-22 08:16:00,30.4,21.5,30.36,NNW,335,10.0,14.0,69,0.00,,---,0.00,116.00,VWS V14.01,2013-02-22 13:16:00,
2013-02-22 08:21:00,30.5,21.6,30.36,NNW,331,13.0,14.0,69,0.00,,---,0.00,116.00,VWS V14.01,2013-02-22 13:21:00,
2013-02-22 08:26:00,30.6,21.6,30.36,NNW,335,3.0,14.0,69,0.00,,---,0.00,128.00,VWS V14.01,2013-02-22 13:26:00,
2013-02-22 08:30:00,30.7,21.8,30.36,NW,305,7.0,14.0,69,0.00,,,0.00,144.00,VWS V14.01,2013-02-22 13:30:00,
2013-02-22 08:31:00,30.6,21.6,30.36,NW,317,5.0,10.0,69,0.00,,---,0.00,144.00,VWS V14.01,2013-02-22 13:31:00,
2013-02-22 08:36:00,30.8,21.9,30.36,NW,313,8.0,14.0,69,0.00,,---,0.00,132.00,VWS V14.01,2013-02-22 13:36:00,
2013-02-22 08:41:00,30.9,21.9,30.37,WNW,286,12.0,14.0,69,0.00,,---,0.00,128.00,VWS V14.01,2013-02-22 13:41:00,
2013-02-22 08:45:00,30.9,21.9,30.37,NW,311,7.0,16.0,69,0.00,,,0.00,130.00,VWS V14.01,2013-02-22 13:45:00,
2013-02-22 08:46:00,30.9,21.9,30.37,NW,308,7.0,9.0,69,0.00,,---,0.00,135.00,VWS V14.01,2013-02-22 13:46:00,
2013-02-22 08:51:00,30.9,21.9,30.37,NW,312,11.0,14.0,69,0.00,,---,0.00,149.00,VWS V14.01,2013-02-22 13:51:00,
2013-02-22 08:57:00,30.9,21.9,30.37,NW,316,3.0,14.0,69,0.00,,---,0.00,153.00,VWS V14.01,2013-02-22 13:57:00,
2013-02-22 09:02:00,31.0,22.0,30.37,North,355,9.0,9.0,69,0.00,,---,0.00,155.00,VWS V14.01,2013-02-22 14:02:00,
2013-02-22 09:07:00,31.1,22.1,30.36,WNW,301,13.0,13.0,69,0.00,,---,0.00,179.00,VWS V14.01,2013-02-22 14:07:00,
2013-02-22 09:12:00,31.2,22.2,30.36,NW,322,5.0,13.0,69,0.00,,---,0.00,186.00,VWS V14.01,2013-02-22 14:12:00,
2013-02-22 09:15:00,31.4,22.4,30.36,NNW,333,9.0,13.0,69,0.00,,,0.00,195.00,VWS V14.01,2013-02-22 14:15:00,
2013-02-22 09:17:00,31.4,22.4,30.36,NNW,340,7.0,9.0,69,0.00,,---,0.00,195.00,VWS V14.01,2013-02-22 14:17:00,
2013-02-22 09:22:00,31.6,22.6,30.36,NNW,339,3.0,11.0,69,0.00,,---,0.00,195.00,VWS V14.01,2013-02-22 14:22:00,
2013-02-22 09:27:00,31.8,22.5,30.36,NW,316,7.0,12.0,68,0.00,,---,0.00,227.00,VWS V14.01,2013-02-22 14:27:00,
2013-02-22 09:30:00,31.9,22.9,30.36,NW,306,11.0,12.0,69,0.00,,,0.00,221.00,VWS V14.01,2013-02-22 14:30:00,
2013-02-22 09:32:00,32.0,22.6,30.36,NW,304,6.0,11.0,68,0.00,,---,0.00,221.00,VWS V14.01,2013-02-22 14:32:00,
2013-02-22 09:37:00,32.2,22.8,30.36,WNW,302,6.0,12.0,68,0.00,,---,0.00,227.00,VWS V14.01,2013-02-22 14:37:00,
2013-02-22 09:42:00,32.5,23.1,30.36,NNW,344,5.0,12.0,68,0.00,,---,0.00,299.00,VWS V14.01,2013-02-22 14:42:00,
2013-02-22 09:47:00,32.9,23.5,30.36,NNW,346,9.0,11.0,68,0.00,,---,0.00,313.00,VWS V14.01,2013-02-22 14:47:00,
2013-02-22 09:52:00,33.1,23.4,30.37,NW,312,5.0,11.0,67,0.00,,---,0.00,323.00,VWS V14.01,2013-02-22 14:52:00,
2013-02-22 09:57:00,33.4,23.6,30.37,NW,308,3.0,11.0,67,0.00,,---,0.00,348.00,VWS V14.01,2013-02-22 14:57:00,
2013-02-22 10:00:00,33.8,24.0,30.37,NNW,327,5.0,11.0,67,0.00,,,0.00,313.00,VWS V14.01,2013-02-22 15:00:00,
2013-02-22 10:02:00,33.9,24.1,30.37,NW,305,6.0,6.0,67,0.00,,---,0.00,279.00,VWS V14.01,2013-02-22 15:02:00,
2013-02-22 10:07:00,34.2,24.0,30.37,NNW,338,5.0,9.0,66,0.00,,---,0.00,267.00,VWS V14.01,2013-02-22 15:07:00,
2013-02-22 10:12:00,34.2,24.0,30.37,NNW,342,10.0,11.0,66,0.00,,---,0.00,267.00,VWS V14.01,2013-02-22 15:12:00,
2013-02-22 10:15:00,34.0,24.2,30.37,NNW,346,1.0,11.0,67,0.00,,,0.00,244.00,VWS V14.01,2013-02-22 15:15:00,
2013-02-22 10:17:00,34.0,24.2,30.37,NW,311,2.0,2.0,67,0.00,,---,0.00,244.00,VWS V14.01,2013-02-22 15:17:00,
2013-02-22 10:22:00,34.2,24.0,30.37,North,5,4.0,7.0,66,0.00,,---,0.00,285.00,VWS V14.01,2013-02-22 15:22:00,
2013-02-22 10:27:00,34.0,24.2,30.37,North,11,5.0,11.0,67,0.00,,---,0.00,306.00,VWS V14.01,2013-02-22 15:27:00,
2013-02-22 10:30:00,34.2,24.4,30.37,NNW,328,11.0,11.0,67,0.00,,,0.00,323.00,VWS V14.01,2013-02-22 15:30:00,
2013-02-22 10:32:00,34.2,24.0,30.37,NW,319,7.0,11.0,66,0.00,,---,0.00,325.00,VWS V14.01,2013-02-22 15:32:00,
2013-02-22 10:37:00,34.3,24.5,30.37,NW,309,4.0,11.0,67,0.00,,---,0.00,313.00,VWS V14.01,2013-02-22 15:37:00,
2013-02-22 10:42:00,34.6,24.4,30.37,NW,323,4.0,15.0,66,0.00,,---,0.00,287.00,VWS V14.01,2013-02-22 15:42:00,
2013-02-22 10:45:00,34.7,24.9,30.37,North,355,2.0,15.0,67,0.00,,,0.00,294.00,VWS V14.01,2013-02-22 15:45:00,
2013-02-22 10:47:00,34.8,25.0,30.37,NNW,332,5.0,6.0,67,0.00,,---,0.00,290.00,VWS V14.01,2013-02-22 15:47:00,
2013-02-22 10:52:00,34.8,24.6,30.37,NW,321,4.0,11.0,66,0.00,,---,0.00,278.00,VWS V14.01,2013-02-22 15:52:00,
2013-02-22 10:57:00,35.0,24.8,30.37,North,355,3.0,11.0,66,0.00,,---,0.00,292.00,VWS V14.01,2013-02-22 15:57:00,
2013-02-22 11:00:00,35.1,24.9,30.37,NNE,16,5.0,11.0,66,0.00,,,0.00,309.00,VWS V14.01,2013-02-22 16:00:00,
2013-02-22 11:02:00,35.1,24.9,30.37,NE,34,2.0,5.0,66,0.00,,---,0.00,316.00,VWS V14.01,2013-02-22 16:02:00,
2013-02-22 11:07:00,35.3,25.5,30.37,North,11,6.0,11.0,67,0.00,,---,0.00,316.00,VWS V14.01,2013-02-22 16:07:00,
2013-02-22 11:12:00,35.3,25.5,30.36,NW,317,11.0,13.0,67,0.00,,---,0.00,253.00,VWS V14.01,2013-02-22 16:12:00,
2013-02-22 11:15:00,35.3,25.5,30.36,North,355,9.0,13.0,67,0.00,,,0.00,278.00,VWS V14.01,2013-02-22 16:15:00,
2013-02-22 11:17:00,35.2,25.4,30.36,NNW,340,12.0,12.0,67,0.00,,---,0.00,278.00,VWS V14.01,2013-02-22 16:17:00,
2013-02-22 11:22:00,35.4,25.5,30.36,North,5,9.0,12.0,67,0.00,,---,0.00,241.00,VWS V14.01,2013-02-22 16:22:00,
2013-02-22 11:27:00,35.6,26.1,30.36,NNW,346,6.0,12.0,68,0.00,,---,0.00,229.00,VWS V14.01,2013-02-22 16:27:00,
2013-02-22 11:30:00,35.5,25.6,30.36,North,5,9.0,13.0,67,0.00,,,0.00,211.00,VWS V14.01,2013-02-22 16:30:00,
2013-02-22 11:32:00,35.5,25.6,30.36,NNW,327,10.0,10.0,67,0.00,,---,0.00,193.00,VWS V14.01,2013-02-22 16:32:00,
2013-02-22 11:37:00,35.5,26.0,30.36,NNW,344,7.0,11.0,68,0.00,,---,0.00,163.00,VWS V14.01,2013-02-22 16:37:00,
2013-02-22 11:42:00,35.6,26.5,30.36,NNE,24,6.0,11.0,69,0.00,,---,0.00,148.00,VWS V14.01,2013-02-22 16:42:00,
2013-02-22 11:47:00,35.6,26.1,30.36,NNW,343,7.0,10.0,68,0.00,,---,0.00,288.00,VWS V14.01,2013-02-22 16:47:00,
2013-02-22 11:52:00,35.8,26.3,30.36,North,5,6.0,13.0,68,0.00,,---,0.00,345.00,VWS V14.01,2013-02-22 16:52:00,
2013-02-22 11:57:00,36.1,26.2,30.35,NNE,14,8.0,13.0,67,0.00,,---,0.00,355.00,VWS V14.01,2013-02-22 16:57:00,
2013-02-22 12:00:00,36.2,26.0,30.35,ENE,57,8.0,13.0,66,0.00,,,0.00,345.00,VWS V14.01,2013-02-22 17:00:00,
2013-02-22 12:02:00,36.3,26.0,30.35,North,355,5.0,9.0,66,0.00,,---,0.00,341.00,VWS V14.01,2013-02-22 17:02:00,
2013-02-22 12:07:00,36.5,26.6,30.35,North,350,7.0,12.0,67,0.00,,---,0.00,327.00,VWS V14.01,2013-02-22 17:07:00,
2013-02-22 12:12:00,36.5,26.2,30.35,North,5,9.0,14.0,66,0.00,,---,0.00,355.00,VWS V14.01,2013-02-22 17:12:00,
2013-02-22 12:15:00,36.6,26.7,30.35,NW,321,6.0,14.0,67,0.00,,,0.00,357.00,VWS V14.01,2013-02-22 17:15:00,
2013-02-22 12:17:00,36.6,27.0,30.35,North,5,8.0,9.0,68,0.00,,---,0.00,364.00,VWS V14.01,2013-02-22 17:17:00,
2013-02-22 12:22:00,36.6,26.7,30.35,NNW,339,7.0,14.0,67,0.00,,---,0.00,297.00,VWS V14.01,2013-02-22 17:22:00,
2013-02-22 12:27:00,36.5,26.6,30.34,North,9,7.0,14.0,67,0.00,,---,0.00,211.00,VWS V14.01,2013-02-22 17:27:00,
2013-02-22 12:32:00,36.6,27.0,30.34,North,10,6.0,10.0,68,0.00,,---,0.00,267.00,VWS V14.01,2013-02-22 17:32:00,
2013-02-22 12:37:00,36.7,26.8,30.34,North,11,7.0,14.0,67,0.00,,---,0.00,232.00,VWS V14.01,2013-02-22 17:37:00,
2013-02-22 12:42:00,36.7,26.8,30.35,NE,35,6.0,14.0,67,0.00,,---,0.00,199.00,VWS V14.01,2013-02-22 17:42:00,
2013-02-22 12:45:00,36.6,26.7,30.35,North,5,7.0,14.0,67,0.00,,,0.00,195.00,VWS V14.01,2013-02-22 17:45:00,
2013-02-22 12:47:00,36.6,26.3,30.35,North,355,4.0,8.0,66,0.00,,---,0.00,190.00,VWS V14.01,2013-02-22 17:47:00,
2013-02-22 12:52:00,36.4,26.5,30.35,NNE,24,9.0,12.0,67,0.00,,---,0.00,163.00,VWS V14.01,2013-02-22 17:52:00,
2013-02-22 12:57:00,36.2,26.3,30.35,North,355,9.0,12.0,67,0.00,,---,0.00,193.00,VWS V14.01,2013-02-22 17:57:00,
2013-02-22 13:00:00,36.1,26.2,30.35,NNE,16,8.0,12.0,67,0.00,,,0.00,267.00,VWS V14.01,2013-02-22 18:00:00,
2013-02-22 13:02:00,36.1,26.6,30.36,NNE,26,11.0,11.0,68,0.00,,---,0.00,265.00,VWS V14.01,2013-02-22 18:02:00,
2013-02-22 13:07:00,36.2,26.7,30.36,NNE,24,9.0,11.0,68,0.00,,---,0.00,257.00,VWS V14.01,2013-02-22 18:07:00,
2013-02-22 13:12:00,36.3,26.4,30.35,NE,46,6.0,11.0,67,0.00,,---,0.00,163.00,VWS V14.01,2013-02-22 18:12:00,
2013-02-22 13:15:00,36.4,26.5,30.35,North,349,4.0,11.0,67,0.00,,,0.00,172.00,VWS V14.01,2013-02-22 18:15:00,
2013-02-22 13:17:00,36.4,26.1,30.35,NNE,19,8.0,9.0,66,0.00,,---,0.00,176.00,VWS V14.01,2013-02-22 18:17:00,
2013-02-22 13:22:00,36.2,26.3,30.36,NNE,25,4.0,9.0,67,0.00,,---,0.00,171.00,VWS V14.01,2013-02-22 18:22:00,
2013-02-22 13:27:00,36.4,26.1,30.35,NNE,19,5.0,14.0,66,0.00,,---,0.00,244.00,VWS V14.01,2013-02-22 18:27:00,
2013-02-22 13:30:00,36.5,26.2,30.35,NNE,20,9.0,15.0,66,0.00,,,0.00,248.00,VWS V14.01,2013-02-22 18:30:00,
2013-02-22 13:32:00,36.5,25.9,30.35,North,349,7.0,11.0,65,0.00,,---,0.00,246.00,VWS V14.01,2013-02-22 18:32:00,
2013-02-22 13:37:00,36.8,25.8,30.35,NE,44,4.0,12.0,64,0.00,,---,0.00,241.00,VWS V14.01,2013-02-22 18:37:00,
2013-02-22 13:42:00,36.7,26.1,30.35,NNE,32,7.0,12.0,65,0.00,,---,0.00,225.00,VWS V14.01,2013-02-22 18:42:00,
2013-02-22 13:45:00,36.6,26.0,30.35,ENE,67,3.0,12.0,65,0.00,,,0.00,214.00,VWS V14.01,2013-02-22 18:45:00,
2013-02-22 13:47:00,36.5,25.9,30.36,North,360,5.0,11.0,65,0.00,,---,0.00,213.00,VWS V14.01,2013-02-22 18:47:00,
2013-02-22 13:52:00,36.5,25.9,30.36,NNE,19,7.0,12.0,65,0.00,,---,0.00,214.00,VWS V14.01,2013-02-22 18:52:00,
2013-02-22 13:57:00,36.6,26.0,30.36,NNE,19,6.0,12.0,65,0.00,,---,0.00,244.00,VWS V14.01,2013-02-22 18:57:00,
2013-02-22 14:00:00,36.6,25.6,30.36,North,5,7.0,12.0,64,0.00,,,0.00,274.00,VWS V14.01,2013-02-22 19:00:00,
2013-02-22 14:02:00,36.6,25.6,30.36,NNE,24,4.0,7.0,64,0.00,,---,0.00,265.00,VWS V14.01,2013-02-22 19:02:00,
2013-02-22 14:07:00,36.7,24.9,30.36,NNE,17,3.0,11.0,62,0.00,,---,0.00,153.00,VWS V14.01,2013-02-22 19:07:00,
2013-02-22 14:12:00,36.7,25.3,30.36,NNE,15,7.0,11.0,63,0.00,,---,0.00,153.00,VWS V14.01,2013-02-22 19:12:00,
2013-02-22 14:15:00,36.8,25.4,30.35,NNW,346,1.0,11.0,63,0.00,,,0.00,148.00,VWS V14.01,2013-02-22 19:15:00,
2013-02-22 14:17:00,36.8,25.4,30.35,WNW,298,8.0,12.0,63,0.00,,---,0.00,153.00,VWS V14.01,2013-02-22 19:17:00,
2013-02-22 14:22:00,36.6,25.2,30.35,NNW,338,10.0,13.0,63,0.00,,---,0.00,192.00,VWS V14.01,2013-02-22 19:22:00,
2013-02-22 14:27:00,36.6,25.2,30.35,North,350,4.0,13.0,63,0.00,,---,0.00,158.00,VWS V14.01,2013-02-22 19:27:00,
2013-02-22 14:32:00,36.5,24.7,30.35,North,350,8.0,8.0,62,0.00,,---,0.00,125.00,VWS V14.01,2013-02-22 19:32:00,
2013-02-22 14:37:00,36.5,25.1,30.35,NW,326,4.0,10.0,63,0.00,,---,0.00,134.00,VWS V14.01,2013-02-22 19:37:00,
2013-02-22 14:42:00,36.4,25.4,30.35,NNE,24,8.0,10.0,64,0.00,,---,0.00,118.00,VWS V14.01,2013-02-22 19:42:00,
2013-02-22 14:45:00,36.3,26.0,30.35,North,350,8.0,10.0,66,0.00,,,0.00,104.00,VWS V14.01,2013-02-22 19:45:00,
2013-02-22 14:47:00,36.2,26.0,30.35,North,11,5.0,8.0,66,0.00,,---,0.00,91.00,VWS V14.01,2013-02-22 19:47:00,
2013-02-22 14:52:00,36.1,25.9,30.35,North,349,8.0,15.0,66,0.00,,---,0.00,86.00,VWS V14.01,2013-02-22 19:52:00,
2013-02-22 14:57:00,35.9,26.0,30.35,NNE,27,6.0,15.0,67,0.00,,---,0.00,65.00,VWS V14.01,2013-02-22 19:57:00,
2013-02-22 15:00:00,35.7,25.8,30.35,NNE,17,7.0,15.0,67,0.00,,,0.00,51.00,VWS V14.01,2013-02-22 20:00:00,
2013-02-22 15:02:00,35.6,26.1,30.35,NNW,346,2.0,8.0,68,0.00,,---,0.00,51.00,VWS V14.01,2013-02-22 20:02:00,
2013-02-22 15:07:00,35.6,26.1,30.35,NNW,328,5.0,11.0,68,0.00,,---,0.00,60.00,VWS V14.01,2013-02-22 20:07:00,
2013-02-22 15:12:00,35.6,26.1,30.35,NNE,32,3.0,11.0,68,0.00,,---,0.00,74.00,VWS V14.01,2013-02-22 20:12:00,
2013-02-22 15:15:00,35.6,26.1,30.35,North,360,9.0,11.0,68,0.00,,,0.00,81.00,VWS V14.01,2013-02-22 20:15:00,
2013-02-22 15:17:00,35.5,26.0,30.36,NNE,32,9.0,9.0,68,0.00,,---,0.00,81.00,VWS V14.01,2013-02-22 20:17:00,
2013-02-22 15:22:00,35.5,26.4,30.36,NNE,21,3.0,11.0,69,0.00,,---,0.00,120.00,VWS V14.01,2013-02-22 20:22:00,
2013-02-22 15:27:00,35.5,26.7,30.36,NNE,24,4.0,11.0,70,0.00,,---,0.00,100.00,VWS V14.01,2013-02-22 20:27:00,
2013-02-22 15:30:00,35.5,26.7,30.35,NE,44,6.0,11.0,70,0.00,,,0.00,125.00,VWS V14.01,2013-02-22 20:30:00,
2013-02-22 15:32:00,35.5,26.4,30.36,NNE,23,5.0,6.0,69,0.00,,---,0.00,123.00,VWS V14.01,2013-02-22 20:32:00,
2013-02-22 15:37:00,35.5,26.4,30.36,North,9,6.0,10.0,69,0.00,,---,0.00,79.00,VWS V14.01,2013-02-22 20:37:00,
2013-02-22 15:42:00,35.5,26.4,30.36,North,5,7.0,11.0,69,0.00,,---,0.00,70.00,VWS V14.01,2013-02-22 20:42:00,
2013-02-22 15:47:00,35.4,26.3,30.36,North,5,8.0,12.0,69,0.00,,---,0.00,53.00,VWS V14.01,2013-02-22 20:47:00,
2013-02-22 15:52:00,35.4,26.6,30.36,NNE,30,4.0,12.0,70,0.00,,---,0.00,51.00,VWS V14.01,2013-02-22 20:52:00,
2013-02-22 15:57:00,35.3,26.2,30.36,North,360,8.0,12.0,69,0.00,,---,0.00,49.00,VWS V14.01,2013-02-22 20:57:00,
2013-02-22 16:00:00,35.3,26.5,30.36,North,11,7.0,12.0,70,0.00,,,0.00,37.00,VWS V14.01,2013-02-22 21:00:00,
2013-02-22 16:02:00,35.3,26.2,30.36,NE,46,11.0,11.0,69,0.00,,---,0.00,28.00,VWS V14.01,2013-02-22 21:02:00,
2013-02-22 16:07:00,35.2,26.4,30.36,NE,38,5.0,11.0,70,0.00,,---,0.00,42.00,VWS V14.01,2013-02-22 21:07:00,
2013-02-22 16:12:00,35.2,26.4,30.36,NNE,30,7.0,11.0,70,0.00,,---,0.00,18.00,VWS V14.01,2013-02-22 21:12:00,
2013-02-22 16:15:00,35.1,26.7,30.36,NE,38,7.0,11.0,71,0.00,,,0.00,19.00,VWS V14.01,2013-02-22 21:15:00,
2013-02-22 16:17:00,35.1,26.7,30.36,NE,44,8.0,8.0,71,0.00,,---,0.00,25.00,VWS V14.01,2013-02-22 21:17:00,
2013-02-22 16:22:00,35.0,26.6,30.36,NE,51,6.0,10.0,71,0.00,,---,0.00,30.00,VWS V14.01,2013-02-22 21:22:00,
2013-02-22 16:27:00,35.1,26.3,30.36,NNE,27,5.0,10.0,70,0.00,,---,0.00,35.00,VWS V14.01,2013-02-22 21:27:00,
2013-02-22 16:30:00,35.0,25.5,30.35,North,5,5.0,10.0,68,0.00,,,0.00,42.00,VWS V14.01,2013-02-22 21:30:00,
2013-02-22 16:32:00,35.1,25.6,30.35,NNE,28,3.0,6.0,68,0.00,,---,0.00,46.00,VWS V14.01,2013-02-22 21:32:00,
2013-02-22 16:37:00,35.1,26.0,30.34,NE,35,10.0,12.0,69,0.00,,---,0.00,51.00,VWS V14.01,2013-02-22 21:37:00,
2013-02-22 16:42:00,35.1,25.6,30.34,NE,34,4.0,12.0,68,0.00,,---,0.00,53.00,VWS V14.01,2013-02-22 21:42:00,
2013-02-22 16:47:00,35.1,25.3,30.34,NNE,19,4.0,7.0,67,0.00,,---,0.00,35.00,VWS V14.01,2013-02-22 21:47:00,
2013-02-22 16:52:00,35.1,25.3,30.34,NNE,21,5.0,9.0,67,0.00,,---,0.00,25.00,VWS V14.01,2013-02-22 21:52:00,
2013-02-22 16:57:00,35.1,25.6,30.34,NNE,21,6.0,9.0,68,0.00,,---,0.00,19.00,VWS V14.01,2013-02-22 21:57:00,
2013-02-22 17:00:00,35.0,25.9,30.34,NE,34,2.0,9.0,69,0.00,,,0.00,18.00,VWS V14.01,2013-02-22 22:00:00,
2013-02-22 17:02:00,35.0,26.2,30.34,NNE,26,8.0,10.0,70,0.00,,---,0.00,18.00,VWS V14.01,2013-02-22 22:02:00,
2013-02-22 17:07:00,34.9,26.8,30.34,NNE,30,6.0,10.0,72,0.00,,---,0.00,14.00,VWS V14.01,2013-02-22 22:07:00,
2013-02-22 17:12:00,34.8,26.4,30.34,NE,34,5.0,10.0,71,0.00,,---,0.00,11.00,VWS V14.01,2013-02-22 22:12:00,
2013-02-22 17:17:00,34.8,26.4,30.33,NE,36,4.0,10.0,71,0.00,,---,0.00,5.00,VWS V14.01,2013-02-22 22:17:00,
2013-02-22 17:22:00,34.7,26.3,30.33,NE,43,10.0,11.0,71,0.00,,---,0.00,0.00,VWS V14.01,2013-02-22 22:22:00,
2013-02-22 17:27:00,34.7,26.3,30.34,NNE,32,6.0,12.0,71,0.00,,---,0.00,0.00,VWS V14.01,2013-02-22 22:27:00,
2013-02-22 17:30:00,34.8,26.4,30.34,ENE,68,6.0,12.0,71,0.00,,,0.00,0.00,VWS V14.01,2013-02-22 22:30:00,
2013-02-22 17:32:00,34.7,26.3,30.34,NE,40,8.0,8.0,71,0.00,,---,0.00,0.00,VWS V14.01,2013-02-22 22:32:00,
2013-02-22 17:37:00,34.7,27.0,30.34,NNE,19,5.0,9.0,73,0.00,,---,0.00,0.00,VWS V14.01,2013-02-22 22:37:00,
2013-02-22 17:42:00,34.6,27.2,30.35,North,5,3.0,9.0,74,0.00,,---,0.00,0.00,VWS V14.01,2013-02-22 22:42:00,
2013-02-22 17:45:00,34.6,27.2,30.36,NNE,20,1.0,9.0,74,0.00,,,0.00,0.00,VWS V14.01,2013-02-22 22:45:00,
2013-02-22 17:47:00,34.6,27.2,30.36,NNE,18,0.0,1.0,74,0.00,,---,0.00,0.00,VWS V14.01,2013-02-22 22:47:00,
2013-02-22 17:52:00,34.6,27.2,30.36,NNE,17,2.0,4.0,74,0.00,,---,0.00,0.00,VWS V14.01,2013-02-22 22:52:00,
2013-02-22 17:57:00,34.5,27.1,30.36,NNE,16,3.0,4.0,74,0.00,,---,0.00,0.00,VWS V14.01,2013-02-22 22:57:00,
2013-02-22 18:00:00,34.5,27.1,30.36,NNE,14,0.0,4.0,74,0.00,,,0.00,0.00,VWS V14.01,2013-02-22 23:00:00,
2013-02-22 18:03:00,34.5,27.1,30.37,NNE,14,0.0,2.0,74,0.00,,---,0.00,0.00,VWS V14.01,2013-02-22 23:03:00,
2013-02-22 18:08:00,34.5,27.1,30.37,North,350,1.0,3.0,74,0.00,,---,0.00,0.00,VWS V14.01,2013-02-22 23:08:00,
2013-02-22 18:13:00,34.5,26.8,30.36,NE,39,7.0,7.0,73,0.00,,---,0.00,0.00,VWS V14.01,2013-02-22 23:13:00,
2013-02-22 18:15:00,34.5,27.1,30.35,NE,45,3.0,7.0,74,0.00,,,0.00,0.00,VWS V14.01,2013-02-22 23:15:00,
2013-02-22 18:18:00,34.5,27.1,30.35,NE,34,4.0,5.0,74,0.00,,---,0.00,0.00,VWS V14.01,2013-02-22 23:18:00,
2013-02-22 18:23:00,34.5,26.4,30.35,NNE,28,2.0,11.0,72,0.00,,---,0.00,0.00,VWS V14.01,2013-02-22 23:23:00,
2013-02-22 18:28:00,34.6,26.9,30.35,NNE,33,4.0,11.0,73,0.00,,---,0.00,0.00,VWS V14.01,2013-02-22 23:28:00,
2013-02-22 18:33:00,34.5,27.1,30.35,NE,45,5.0,7.0,74,0.00,,---,0.00,0.00,VWS V14.01,2013-02-22 23:33:00,
2013-02-22 18:38:00,34.4,27.3,30.35,NNE,25,3.0,7.0,75,0.00,,---,0.00,0.00,VWS V14.01,2013-02-22 23:38:00,
2013-02-22 18:43:00,34.4,27.6,30.35,NE,45,4.0,7.0,76,0.00,,---,0.00,0.00,VWS V14.01,2013-02-22 23:43:00,
2013-02-22 18:45:00,34.3,27.9,30.35,NE,44,4.0,7.0,77,0.00,,,0.00,0.00,VWS V14.01,2013-02-22 23:45:00,
2013-02-22 18:48:00,34.3,27.9,30.36,NNE,26,3.0,5.0,77,0.00,,---,0.00,0.00,VWS V14.01,2013-02-22 23:48:00,
2013-02-22 18:53:00,34.3,27.9,30.36,NE,43,1.0,5.0,77,0.00,,---,0.00,0.00,VWS V14.01,2013-02-22 23:53:00,
2013-02-22 18:58:00,34.2,27.8,30.36,NNE,27,2.0,5.0,77,0.00,,---,0.00,0.00,VWS V14.01,2013-02-22 23:58:00,
2013-02-22 19:03:00,34.2,27.8,30.36,NE,39,1.0,3.0,77,0.00,,---,0.00,0.00,VWS V14.01,2013-02-23 00:03:00,
2013-02-22 19:08:00,34.2,27.8,30.37,NNE,21,2.0,3.0,77,0.00,,---,0.00,0.00,VWS V14.01,2013-02-23 00:08:00,
2013-02-22 19:13:00,34.2,27.8,30.37,NNE,21,0.0,3.0,77,0.00,,---,0.00,0.00,VWS V14.01,2013-02-23 00:13:00,
2013-02-22 19:15:00,34.2,27.8,30.37,NNE,21,2.0,3.0,77,0.00,,,0.00,0.00,VWS V14.01,2013-02-23 00:15:00,
2013-02-22 19:18:00,34.2,27.8,30.36,NNE,32,2.0,3.0,77,0.00,,---,0.00,0.00,VWS V14.01,2013-02-23 00:18:00,
2013-02-22 19:23:00,34.1,28.0,30.36,NE,54,3.0,-999.0,77,-99.99,,,0.00,0,weatherlink.com 1.10,2013-02-23 00:23:00,
2013-02-22 19:28:00,34.1,27.7,30.36,NE,54,2.0,4.0,77,0.00,,---,0.00,0.00,VWS V14.01,2013-02-23 00:28:00,
2013-02-22 19:33:00,34.1,28.0,30.36,NE,54,1.0,2.0,78,0.00,,---,0.00,0.00,VWS V14.01,2013-02-23 00:33:00,
2013-02-22 19:38:00,34.0,27.6,30.37,NE,54,0.0,2.0,77,0.00,,---,0.00,0.00,VWS V14.01,2013-02-23 00:38:00,
2013-02-22 19:43:00,34.1,27.3,30.37,NE,54,0.0,2.0,76,0.00,,---,0.00,0.00,VWS V14.01,2013-02-23 00:43:00,
2013-02-22 19:45:00,34.1,27.0,30.37,NE,54,0.0,2.0,75,0.00,,,0.00,0.00,VWS V14.01,2013-02-23 00:45:00,
2013-02-22 19:48:00,34.1,27.0,30.37,NE,54,0.0,0.0,75,0.00,,---,0.00,0.00,VWS V14.01,2013-02-23 00:48:00,
2013-02-22 19:53:00,34.1,27.0,30.37,NE,54,1.0,1.0,75,0.00,,---,0.00,0.00,VWS V14.01,2013-02-23 00:53:00,
2013-02-22 19:58:00,34.1,27.0,30.36,NE,54,2.0,2.0,75,0.00,,---,0.00,0.00,VWS V14.01,2013-02-23 00:58:00,
2013-02-22 20:00:00,34.0,26.9,30.36,NE,54,3.0,3.0,75,0.00,,,0.00,0.00,VWS V14.01,2013-02-23 01:00:00,
2013-02-22 20:03:00,34.0,26.9,30.36,NE,54,3.0,3.0,75,0.00,,---,0.00,0.00,VWS V14.01,2013-02-23 01:03:00,
2013-02-22 20:08:00,33.9,26.8,30.36,NE,55,2.0,5.0,75,0.00,,---,0.00,0.00,VWS V14.01,2013-02-23 01:08:00,
2013-02-22 20:13:00,33.9,26.8,30.36,NE,55,1.0,5.0,75,0.00,,---,0.00,0.00,VWS V14.01,2013-02-23 01:13:00,
2013-02-22 20:15:00,33.9,26.8,30.36,NE,55,2.0,5.0,75,0.00,,,0.00,0.00,VWS V14.01,2013-02-23 01:15:00,
2013-02-22 20:18:00,33.9,26.8,30.36,NE,55,1.0,2.0,75,0.00,,---,0.00,0.00,VWS V14.01,2013-02-23 01:18:00,
2013-02-22 20:23:00,33.9,27.1,30.36,NE,55,1.0,3.0,76,0.00,,---,0.00,0.00,VWS V14.01,2013-02-23 01:23:00,
2013-02-22 20:28:00,33.9,27.1,30.37,NE,55,0.0,3.0,76,0.00,,---,0.00,0.00,VWS V14.01,2013-02-23 01:28:00,
2013-02-22 20:30:00,33.9,27.1,30.38,NW,319,2.0,3.0,76,0.00,,,0.00,0.00,VWS V14.01,2013-02-23 01:30:00,
2013-02-22 20:33:00,33.8,27.4,30.37,NW,319,0.0,2.0,77,0.00,,---,0.00,0.00,VWS V14.01,2013-02-23 01:33:00,
2013-02-22 20:38:00,33.8,27.4,30.37,NW,319,1.0,2.0,77,0.00,,---,0.00,0.00,VWS V14.01,2013-02-23 01:38:00,
2013-02-22 20:43:00,33.8,27.7,30.37,NW,319,1.0,2.0,78,0.00,,---,0.00,0.00,VWS V14.01,2013-02-23 01:43:00,
2013-02-22 20:48:00,33.7,27.6,30.37,NW,319,2.0,2.0,78,0.00,,---,0.00,0.00,VWS V14.01,2013-02-23 01:48:00,
2013-02-22 20:53:00,33.7,27.9,30.36,NW,319,1.0,2.0,79,0.00,,---,0.00,0.00,VWS V14.01,2013-02-23 01:53:00,
2013-02-22 20:58:00,33.6,27.2,30.36,NW,319,1.0,2.0,77,0.00,,---,0.00,0.00,VWS V14.01,2013-02-23 01:58:00,
2013-02-22 21:03:00,33.6,27.2,30.36,NW,319,2.0,2.0,77,0.00,,---,0.00,0.00,VWS V14.01,2013-02-23 02:03:00,
2013-02-22 21:08:00,33.7,26.6,30.36,NW,319,1.0,2.0,75,0.00,,---,0.00,0.00,VWS V14.01,2013-02-23 02:08:00,
2013-02-22 21:13:00,33.8,26.4,30.37,NW,319,0.0,2.0,74,0.00,,---,0.00,0.00,VWS V14.01,2013-02-23 02:13:00,
2013-02-22 21:18:00,33.8,26.4,30.36,NW,319,1.0,2.0,74,0.00,,---,0.00,0.00,VWS V14.01,2013-02-23 02:18:00,
2013-02-22 21:23:00,33.8,26.4,30.37,NW,319,2.0,2.0,74,0.00,,---,0.00,0.00,VWS V14.01,2013-02-23 02:23:00,
2013-02-22 21:28:00,33.8,26.4,30.37,NW,319,2.0,3.0,74,0.00,,---,0.00,0.00,VWS V14.01,2013-02-23 02:28:00,
2013-02-22 21:33:00,33.8,26.4,30.36,NNW,343,2.0,3.0,74,0.00,,---,0.00,0.00,VWS V14.01,2013-02-23 02:33:00,
2013-02-22 21:38:00,33.7,26.3,30.36,NNW,343,2.0,3.0,74,0.00,,---,0.00,0.00,VWS V14.01,2013-02-23 02:38:00,
2013-02-22 21:43:00,33.6,26.2,30.35,NNW,343,2.0,3.0,74,0.00,,---,0.00,0.00,VWS V14.01,2013-02-23 02:43:00,
2013-02-22 21:45:00,33.6,26.2,30.35,NNW,343,1.0,3.0,74,0.00,,,0.00,0.00,VWS V14.01,2013-02-23 02:45:00,
2013-02-22 21:48:00,33.6,26.2,30.36,NNW,343,0.0,1.0,74,0.00,,---,0.00,0.00,VWS V14.01,2013-02-23 02:48:00,
2013-02-22 21:53:00,33.5,26.1,30.35,NNW,343,2.0,3.0,74,0.00,,---,0.00,0.00,VWS V14.01,2013-02-23 02:53:00,
2013-02-22 21:58:00,33.5,26.1,30.35,NNE,19,3.0,4.0,74,0.00,,---,0.00,0.00,VWS V14.01,2013-02-23 02:58:00,
2013-02-22 22:03:00,33.4,26.3,30.35,NNE,16,4.0,4.0,75,0.00,,---,0.00,0.00,VWS V14.01,2013-02-23 03:03:00,
2013-02-22 22:08:00,33.3,26.6,30.35,North,360,1.0,4.0,76,0.00,,---,0.00,0.00,VWS V14.01,2013-02-23 03:08:00,
2013-02-22 22:13:00,33.3,26.6,30.35,NNW,342,2.0,4.0,76,0.00,,---,0.00,0.00,VWS V14.01,2013-02-23 03:13:00,
2013-02-22 22:15:00,33.3,26.6,30.35,NNW,342,2.0,4.0,76,0.00,,,0.00,0.00,VWS V14.01,2013-02-23 03:15:00,
2013-02-22 22:18:00,33.3,26.6,30.35,NNW,342,1.0,3.0,76,0.00,,---,0.00,0.00,VWS V14.01,2013-02-23 03:18:00,
2013-02-22 22:23:00,33.3,26.2,30.35,NNW,342,2.0,3.0,75,0.00,,---,0.00,0.00,VWS V14.01,2013-02-23 03:23:00,
2013-02-22 22:28:00,33.3,26.2,30.36,NNW,331,2.0,3.0,75,0.00,,---,0.00,0.00,VWS V14.01,2013-02-23 03:28:00,
2013-02-22 22:30:00,33.4,26.0,30.36,NNW,327,2.0,3.0,74,0.00,,,0.00,0.00,VWS V14.01,2013-02-23 03:30:00,
2013-02-22 22:33:00,33.4,26.3,30.36,NNW,327,2.0,2.0,75,0.00,,---,0.00,0.00,VWS V14.01,2013-02-23 03:33:00,
2013-02-22 22:38:00,33.4,28.2,30.36,WNW,292,2.0,4.0,81,0.00,,---,0.00,0.00,VWS V14.01,2013-02-23 03:38:00,
2013-02-22 22:43:00,33.3,28.4,30.36,WNW,298,3.0,4.0,82,0.00,,---,0.00,0.00,VWS V14.01,2013-02-23 03:43:00,
2013-02-22 22:45:00,33.2,28.3,30.36,WNW,297,2.0,4.0,82,0.00,,,0.00,0.00,VWS V14.01,2013-02-23 03:45:00,
2013-02-22 22:48:00,33.2,28.3,30.36,WNW,297,1.0,2.0,82,0.00,,---,0.00,0.00,VWS V14.01,2013-02-23 03:48:00,
2013-02-22 22:53:00,33.1,27.9,30.36,WNW,298,3.0,3.0,81,0.00,,---,0.00,0.00,VWS V14.01,2013-02-23 03:53:00,
2013-02-22 22:58:00,33.0,27.2,30.36,WNW,298,1.0,3.0,79,0.00,,---,0.00,0.00,VWS V14.01,2013-02-23 03:58:00,
2013-02-22 23:00:00,33.0,27.2,30.36,WNW,298,2.0,3.0,79,0.00,,,0.00,0.00,VWS V14.01,2013-02-23 04:00:00,
2013-02-22 23:03:00,33.0,26.9,30.36,WNW,302,2.0,3.0,78,0.00,,---,0.00,0.00,VWS V14.01,2013-02-23 04:03:00,
2013-02-22 23:08:00,33.1,26.7,30.36,NW,315,2.0,3.0,77,0.00,,---,0.00,0.00,VWS V14.01,2013-02-23 04:08:00,
2013-02-22 23:13:00,33.1,26.4,30.36,NW,316,2.0,3.0,76,0.00,,---,0.00,0.00,VWS V14.01,2013-02-23 04:13:00,
2013-02-22 23:18:00,33.2,26.5,30.36,NNW,335,1.0,2.0,76,0.00,,---,0.00,0.00,VWS V14.01,2013-02-23 04:18:00,
2013-02-22 23:23:00,33.3,26.2,30.35,NNW,339,3.0,3.0,75,0.00,,---,0.00,0.00,VWS V14.01,2013-02-23 04:23:00,
2013-02-22 23:28:00,33.3,26.2,30.36,NNW,343,2.0,3.0,75,0.00,,---,0.00,0.00,VWS V14.01,2013-02-23 04:28:00,
2013-02-22 23:30:00,33.2,26.1,30.36,NNW,339,2.0,3.0,75,0.00,,,0.00,0.00,VWS V14.01,2013-02-23 04:30:00,
2013-02-22 23:33:00,33.2,26.1,30.36,NNW,339,2.0,4.0,75,0.00,,---,0.00,0.00,VWS V14.01,2013-02-23 04:33:00,
2013-02-22 23:38:00,33.3,26.2,30.36,NNW,339,2.0,4.0,75,0.00,,---,0.00,0.00,VWS V14.01,2013-02-23 04:38:00,
2013-02-22 23:43:00,33.3,26.2,30.35,North,5,3.0,4.0,75,0.00,,---,0.00,0.00,VWS V14.01,2013-02-23 04:43:00,
2013-02-22 23:45:00,33.3,26.2,30.35,North,5,4.0,4.0,75,0.00,,,0.00,0.00,VWS V14.01,2013-02-23 04:45:00,
2013-02-22 23:48:00,33.3,26.2,30.35,North,5,3.0,4.0,75,0.00,,---,0.00,0.00,VWS V14.01,2013-02-23 04:48:00,
2013-02-22 23:53:00,33.3,25.9,30.35,NNE,15,2.0,4.0,74,0.00,,---,0.00,0.00,VWS V14.01,2013-02-23 04:53:00,
2013-02-22 23:58:00,33.2,26.5,30.34,NE,35,4.0,4.0,76,0.00,,---,0.00,0.00,VWS V14.01,2013-02-23 04:58:00,